createdAt,value
2018-07-23T00:00:32.919Z,46.56
2018-07-23T00:03:00.381Z,46.67
2018-07-23T00:05:27.833Z,47.33
2018-07-23T00:07:55.309Z,46.43
2018-07-23T00:10:22.753Z,46.65
2018-07-23T00:12:50.217Z,46.99
2018-07-23T00:15:17.665Z,47.50
2018-07-23T00:17:45.139Z,46.56
2018-07-23T00:20:12.561Z,46.59
2018-07-23T00:22:40.043Z,47.73
2018-07-23T00:25:07.498Z,47.34
2018-07-23T00:27:34.944Z,47.53
2018-07-23T00:30:02.389Z,46.90
2018-07-23T00:32:29.876Z,46.98
2018-07-23T00:34:57.335Z,47.94
2018-07-23T00:37:24.781Z,47.36
2018-07-23T00:39:52.249Z,47.91
2018-07-23T00:42:19.672Z,46.25
2018-07-23T00:44:47.149Z,48.17
2018-07-23T00:47:14.610Z,47.53
2018-07-23T00:49:42.084Z,47.96
2018-07-23T00:52:09.513Z,47.93
2018-07-23T00:54:36.989Z,47.39
2018-07-23T00:57:05.467Z,47.50
2018-07-23T00:59:32.909Z,47.95
2018-07-23T01:02:00.386Z,47.51
2018-07-23T01:04:27.858Z,48.16
2018-07-23T01:06:55.273Z,47.79
2018-07-23T01:09:22.729Z,47.13
2018-07-23T01:11:50.221Z,46.91
2018-07-23T01:14:17.669Z,47.11
2018-07-23T01:16:45.160Z,46.85
2018-07-23T01:19:12.642Z,47.10
2018-07-23T01:21:40.073Z,47.06
2018-07-23T01:24:07.478Z,47.20
2018-07-23T01:26:34.953Z,47.33
2018-07-23T01:29:02.397Z,47.64
2018-07-23T01:31:29.873Z,47.90
2018-07-23T01:33:57.330Z,47.69
2018-07-23T01:36:24.762Z,47.14
2018-07-23T01:38:52.257Z,47.60
2018-07-23T01:41:19.673Z,46.73
2018-07-23T01:43:47.157Z,47.91
2018-07-23T01:46:14.607Z,47.43
2018-07-23T01:48:42.110Z,46.85
2018-07-23T01:51:09.561Z,47.14
2018-07-23T01:53:36.989Z,47.61
2018-07-23T01:56:04.612Z,47.63
2018-07-23T01:58:32.086Z,46.64
2018-07-23T02:01:04.742Z,46.94
2018-07-23T02:03:32.125Z,47.46
2018-07-23T02:05:59.601Z,47.30
2018-07-23T02:08:27.057Z,46.77
2018-07-23T02:10:54.525Z,47.23
2018-07-23T02:13:21.951Z,47.55
2018-07-23T02:15:49.441Z,46.90
2018-07-23T02:18:16.885Z,47.23
2018-07-23T02:20:44.345Z,46.81
2018-07-23T02:23:11.799Z,46.86
2018-07-23T02:25:39.265Z,47.95
2018-07-23T02:28:06.718Z,47.25
2018-07-23T02:30:34.161Z,48.14
2018-07-23T02:33:01.638Z,47.29
2018-07-23T02:35:29.096Z,48.10
2018-07-23T02:37:56.549Z,47.13
2018-07-23T02:40:23.987Z,47.86
2018-07-23T02:42:51.481Z,47.34
2018-07-23T02:45:18.906Z,47.53
2018-07-23T02:47:46.374Z,47.80
2018-07-23T02:50:13.889Z,47.33
2018-07-23T02:52:41.265Z,47.94
2018-07-23T02:55:08.747Z,48.11
2018-07-23T02:57:37.066Z,47.53
2018-07-23T03:00:04.791Z,47.51
2018-07-23T03:02:32.159Z,46.71
2018-07-23T03:04:59.602Z,46.60
2018-07-23T03:07:27.078Z,47.00
2018-07-23T03:09:54.493Z,46.85
2018-07-23T03:12:21.975Z,47.36
2018-07-23T03:14:49.399Z,48.01
2018-07-23T03:17:16.895Z,46.69
2018-07-23T03:19:44.365Z,47.37
2018-07-23T03:22:11.851Z,46.83
2018-07-23T03:24:39.225Z,46.85
2018-07-23T03:27:06.712Z,47.58
2018-07-23T03:29:34.166Z,46.86
2018-07-23T03:32:01.638Z,47.76
2018-07-23T03:34:29.085Z,47.95
2018-07-23T03:36:56.582Z,47.90
2018-07-23T03:39:23.998Z,47.56
2018-07-23T03:41:51.482Z,47.51
2018-07-23T03:44:18.894Z,48.12
2018-07-23T03:46:46.350Z,47.63
2018-07-23T03:49:13.825Z,48.26
2018-07-23T03:51:41.289Z,47.57
2018-07-23T03:54:08.744Z,47.04
2018-07-23T03:56:36.209Z,48.01
2018-07-23T03:59:04.405Z,47.48
2018-07-23T04:01:31.817Z,47.59
2018-07-23T04:03:59.294Z,48.03
2018-07-23T04:06:26.729Z,47.71
2018-07-23T04:08:54.205Z,47.71
2018-07-23T04:11:21.650Z,48.52
2018-07-23T04:13:49.179Z,47.51
2018-07-23T04:16:16.497Z,48.45
2018-07-23T04:18:44.021Z,48.59
2018-07-23T04:21:11.481Z,48.06
2018-07-23T04:23:38.930Z,47.91
2018-07-23T04:26:06.244Z,47.72
2018-07-23T04:28:33.657Z,47.30
2018-07-23T04:31:01.113Z,47.95
2018-07-23T04:33:28.565Z,48.36
2018-07-23T04:35:55.897Z,48.90
2018-07-23T04:38:23.270Z,48.23
2018-07-23T04:40:50.705Z,48.74
2018-07-23T04:43:18.053Z,47.80
2018-07-23T04:45:45.417Z,47.86
2018-07-23T04:48:12.899Z,47.46
2018-07-23T04:50:40.385Z,48.07
2018-07-23T04:53:07.678Z,48.76
2018-07-23T04:55:35.046Z,48.72
2018-07-23T04:58:02.522Z,48.64
2018-07-23T05:00:29.989Z,48.13
2018-07-23T05:02:57.326Z,48.30
2018-07-23T05:05:24.689Z,47.93
2018-07-23T05:07:52.170Z,47.86
2018-07-23T05:10:19.593Z,47.41
2018-07-23T05:12:46.929Z,47.84
2018-07-23T05:15:14.301Z,47.35
2018-07-23T05:17:41.790Z,47.51
2018-07-23T05:20:09.101Z,47.58
2018-07-23T05:22:36.456Z,47.70
2018-07-23T05:25:04.003Z,48.05
2018-07-23T05:27:31.378Z,48.79
2018-07-23T05:29:58.853Z,48.47
2018-07-23T05:32:26.295Z,47.52
2018-07-23T05:34:54.277Z,47.97
2018-07-23T05:37:21.633Z,47.64
2018-07-23T05:39:49.093Z,47.69
2018-07-23T05:42:16.576Z,47.67
2018-07-23T05:44:43.983Z,47.81
2018-07-23T05:47:11.525Z,47.65
2018-07-23T05:49:38.974Z,48.70
2018-07-23T05:52:06.364Z,48.08
2018-07-23T05:54:33.817Z,47.77
2018-07-23T05:57:01.290Z,47.81
2018-07-23T05:59:28.754Z,48.63
2018-07-23T06:01:56.178Z,49.09
2018-07-23T06:04:23.645Z,48.22
2018-07-23T06:06:51.258Z,48.85
2018-07-23T06:09:18.569Z,47.94
2018-07-23T06:11:46.052Z,48.72
2018-07-23T06:14:13.494Z,49.01
2018-07-23T06:16:41.504Z,47.66
2018-07-23T06:19:09.014Z,47.98
2018-07-23T06:21:36.475Z,49.02
2018-07-23T06:24:04.055Z,47.78
2018-07-23T06:26:32.446Z,48.66
2018-07-23T06:28:59.857Z,49.09
2018-07-23T06:31:27.322Z,48.84
2018-07-23T06:33:54.757Z,48.86
2018-07-23T06:36:24.169Z,49.42
2018-07-23T06:38:51.653Z,48.85
2018-07-23T06:41:19.130Z,48.53
2018-07-23T06:43:46.478Z,48.47
2018-07-23T06:46:14.009Z,49.40
2018-07-23T06:48:41.524Z,49.29
2018-07-23T06:51:08.934Z,48.83
2018-07-23T06:53:36.369Z,49.21
2018-07-23T06:56:03.916Z,49.96
2018-07-23T06:58:31.297Z,49.62
2018-07-23T07:00:58.754Z,49.92
2018-07-23T07:03:26.300Z,49.72
2018-07-23T07:05:53.658Z,47.53
2018-07-23T07:08:21.130Z,47.93
2018-07-23T07:10:48.499Z,47.88
2018-07-23T07:13:15.830Z,47.38
2018-07-23T07:15:43.307Z,48.19
2018-07-23T07:18:10.690Z,46.92
2018-07-23T07:20:38.035Z,47.42
2018-07-23T07:23:05.461Z,46.52
2018-07-23T07:25:33.005Z,46.71
2018-07-23T07:28:00.357Z,46.95
2018-07-23T07:30:27.702Z,46.16
2018-07-23T07:32:55.082Z,46.82
2018-07-23T07:35:22.533Z,45.88
2018-07-23T07:37:49.926Z,44.31
2018-07-23T07:40:17.237Z,43.97
2018-07-23T07:42:44.698Z,44.76
2018-07-23T07:45:12.165Z,45.08
2018-07-23T07:47:39.625Z,44.46
2018-07-23T07:50:07.080Z,43.99
2018-07-23T07:52:34.510Z,43.41
2018-07-23T07:55:01.837Z,42.98
2018-07-23T07:57:29.142Z,42.89
2018-07-23T07:59:56.465Z,42.76
2018-07-23T08:02:23.782Z,43.06
2018-07-23T08:04:52.118Z,42.73
2018-07-23T08:07:19.437Z,43.21
2018-07-23T08:09:46.737Z,43.06
2018-07-23T08:12:14.070Z,43.84
2018-07-23T08:14:41.397Z,46.28
2018-07-23T08:17:09.901Z,45.29
2018-07-23T08:19:37.249Z,46.04
2018-07-23T08:22:05.375Z,46.11
2018-07-23T08:24:32.753Z,46.75
2018-07-23T08:27:00.166Z,45.97
2018-07-23T08:29:27.467Z,46.13
2018-07-23T08:31:54.994Z,45.88
2018-07-23T08:34:22.170Z,44.65
2018-07-23T08:36:49.481Z,45.97
2018-07-23T08:39:16.782Z,46.13
2018-07-23T08:41:44.206Z,46.24
2018-07-23T08:44:11.518Z,45.46
2018-07-23T08:46:38.835Z,46.48
2018-07-23T08:49:06.162Z,45.66
2018-07-23T08:51:33.482Z,45.43
2018-07-23T08:54:00.833Z,45.01
2018-07-23T08:56:28.145Z,46.07
2018-07-23T08:58:55.504Z,45.51
2018-07-23T09:01:22.845Z,45.13
2018-07-23T09:03:50.176Z,45.09
2018-07-23T09:06:17.555Z,45.48
2018-07-23T09:08:44.908Z,46.09
2018-07-23T09:11:12.196Z,46.12
2018-07-23T09:13:39.508Z,46.24
2018-07-23T09:16:06.864Z,45.91
2018-07-23T09:18:34.913Z,45.67
2018-07-23T09:21:02.239Z,44.72
2018-07-23T09:23:29.533Z,45.47
2018-07-23T09:25:56.857Z,45.04
2018-07-23T09:28:24.167Z,44.82
2018-07-23T09:30:51.649Z,45.66
2018-07-23T09:33:19.152Z,44.71
2018-07-23T09:35:46.540Z,45.62
2018-07-23T09:38:13.975Z,45.58
2018-07-23T09:40:41.454Z,45.55
2018-07-23T09:43:08.865Z,44.95
2018-07-23T09:45:36.362Z,45.02
2018-07-23T09:48:03.837Z,45.64
2018-07-23T09:50:31.254Z,44.83
2018-07-23T09:52:58.689Z,45.01
2018-07-23T09:55:26.026Z,44.17
2018-07-23T09:57:53.430Z,44.13
2018-07-23T10:00:20.885Z,43.80
2018-07-23T10:02:48.237Z,42.75
2018-07-23T10:05:15.541Z,44.16
2018-07-23T10:07:43.042Z,44.22
2018-07-23T10:10:10.596Z,43.75
2018-07-23T10:12:37.982Z,43.55
2018-07-23T10:15:05.657Z,43.34
2018-07-23T10:17:33.098Z,43.08
2018-07-23T10:20:00.701Z,43.32
2018-07-23T10:22:28.855Z,43.76
2018-07-23T10:24:56.441Z,43.55
2018-07-23T10:27:24.052Z,44.05
2018-07-23T10:29:51.367Z,43.54
2018-07-23T10:32:18.744Z,43.14
2018-07-23T10:34:46.077Z,44.18
2018-07-23T10:37:14.554Z,43.40
2018-07-23T10:39:42.705Z,43.65
2018-07-23T10:42:10.301Z,43.55
2018-07-23T10:44:37.797Z,43.29
2018-07-23T10:47:05.431Z,43.51
2018-07-23T10:49:32.897Z,43.83
2018-07-23T10:52:00.342Z,44.17
2018-07-23T10:54:27.805Z,43.52
2018-07-23T10:56:55.263Z,44.03
2018-07-23T10:59:23.564Z,43.45
2018-07-23T11:01:51.036Z,43.56
2018-07-23T11:04:18.563Z,44.17
2018-07-23T11:06:45.890Z,44.21
2018-07-23T11:09:13.370Z,44.07
2018-07-23T11:11:40.698Z,44.14
2018-07-23T11:14:08.081Z,43.84
2018-07-23T11:16:35.518Z,43.63
2018-07-23T11:19:03.048Z,43.53
2018-07-23T11:21:30.354Z,44.42
2018-07-23T11:23:57.739Z,44.45
2018-07-23T11:26:25.230Z,43.92
2018-07-23T11:28:52.589Z,43.63
2018-07-23T11:31:19.930Z,44.12
2018-07-23T11:33:47.314Z,44.59
2018-07-23T11:36:14.815Z,44.28
2018-07-23T11:38:42.245Z,43.33
2018-07-23T11:41:10.726Z,43.87
2018-07-23T11:43:38.247Z,43.63
2018-07-23T11:46:05.722Z,43.49
2018-07-23T11:48:33.109Z,44.01
2018-07-23T11:51:00.589Z,44.40
2018-07-23T11:53:28.167Z,43.70
2018-07-23T11:55:55.445Z,44.46
2018-07-23T11:58:22.805Z,43.64
2018-07-23T12:00:50.270Z,43.51
2018-07-23T12:03:17.629Z,44.04
2018-07-23T12:05:45.077Z,43.56
2018-07-23T12:08:12.571Z,43.26
2018-07-23T12:10:40.034Z,43.89
2018-07-23T12:13:07.449Z,43.64
2018-07-23T12:15:34.842Z,44.08
2018-07-23T12:18:03.170Z,43.84
2018-07-23T12:20:30.651Z,43.22
2018-07-23T12:22:58.093Z,43.26
2018-07-23T12:25:25.598Z,43.93
2018-07-23T12:27:52.978Z,42.96
2018-07-23T12:30:20.481Z,43.44
2018-07-23T12:32:47.951Z,43.13
2018-07-23T12:35:15.413Z,43.20
2018-07-23T12:37:42.829Z,43.71
2018-07-23T12:40:11.193Z,43.32
2018-07-23T12:42:38.728Z,43.67
2018-07-23T12:45:06.320Z,43.94
2018-07-23T12:47:33.719Z,43.98
2018-07-23T12:50:01.198Z,43.80
2018-07-23T12:52:28.635Z,44.01
2018-07-23T12:54:56.041Z,43.64
2018-07-23T12:57:23.567Z,42.81
2018-07-23T12:59:51.077Z,42.76
2018-07-23T13:02:18.458Z,42.76
2018-07-23T13:04:45.841Z,43.32
2018-07-23T13:07:13.378Z,43.51
2018-07-23T13:09:40.861Z,43.15
2018-07-23T13:12:08.267Z,43.74
2018-07-23T13:14:35.739Z,43.54
2018-07-23T13:17:03.268Z,42.74
2018-07-23T13:19:30.664Z,42.73
2018-07-23T13:21:58.047Z,42.96
2018-07-23T13:24:25.657Z,43.16
2018-07-23T13:26:53.099Z,42.97
2018-07-23T13:29:20.558Z,42.89
2018-07-23T13:31:48.001Z,42.84
2018-07-23T13:34:15.456Z,43.64
2018-07-23T13:36:42.924Z,43.93
2018-07-23T13:39:10.325Z,42.83
2018-07-23T13:41:37.794Z,42.68
2018-07-23T13:44:05.213Z,43.39
2018-07-23T13:46:32.833Z,42.52
2018-07-23T13:49:00.323Z,42.74
2018-07-23T13:51:27.814Z,42.71
2018-07-23T13:53:55.341Z,42.83
2018-07-23T13:56:22.882Z,42.71
2018-07-23T13:58:50.458Z,42.83
2018-07-23T14:01:17.925Z,42.66
2018-07-23T14:03:45.519Z,42.07
2018-07-23T14:06:12.952Z,43.00
2018-07-23T14:08:40.546Z,43.15
2018-07-23T14:11:08.085Z,42.23
2018-07-23T14:13:35.420Z,42.15
2018-07-23T14:16:03.343Z,42.51
2018-07-23T14:18:30.883Z,42.15
2018-07-23T14:20:58.297Z,41.75
2018-07-23T14:23:25.757Z,42.27
2018-07-23T14:25:53.217Z,42.02
2018-07-23T14:28:20.550Z,43.14
2018-07-23T14:30:47.931Z,43.17
2018-07-23T14:33:15.579Z,42.96
2018-07-23T14:35:43.029Z,43.16
2018-07-23T14:38:10.510Z,42.65
2018-07-23T14:40:38.110Z,43.09
2018-07-23T14:43:07.544Z,42.79
2018-07-23T14:45:34.921Z,42.14
2018-07-23T14:48:02.370Z,43.38
2018-07-23T14:50:29.834Z,42.01
2018-07-23T14:52:57.289Z,42.35
2018-07-23T14:55:24.747Z,42.97
2018-07-23T14:57:52.292Z,42.37
2018-07-23T15:00:19.665Z,42.48
2018-07-23T15:02:47.105Z,42.89
2018-07-23T15:05:14.654Z,43.22
2018-07-23T15:07:42.637Z,42.75
2018-07-23T15:10:10.959Z,42.38
2018-07-23T15:12:38.361Z,42.83
2018-07-23T15:15:05.853Z,42.12
2018-07-23T15:17:33.301Z,42.31
2018-07-23T15:20:00.729Z,42.47
2018-07-23T15:22:28.230Z,42.90
2018-07-23T15:24:55.674Z,42.67
2018-07-23T15:27:23.169Z,42.10
2018-07-23T15:29:50.577Z,42.17
2018-07-23T15:32:18.056Z,42.25
2018-07-23T15:34:45.490Z,42.17
2018-07-23T15:37:12.958Z,41.96
2018-07-23T15:39:40.402Z,42.38
2018-07-23T15:42:07.906Z,41.74
2018-07-23T15:44:35.638Z,41.04
2018-07-23T15:47:02.798Z,42.02
2018-07-23T15:49:30.273Z,41.22
2018-07-23T15:51:57.871Z,41.26
2018-07-23T15:54:25.462Z,42.00
2018-07-23T15:56:52.961Z,42.45
2018-07-23T15:59:20.665Z,41.60
2018-07-23T16:01:48.185Z,41.88
2018-07-23T16:04:15.653Z,41.47
2018-07-23T16:06:43.706Z,42.38
2018-07-23T16:09:11.205Z,41.86
2018-07-23T16:11:38.607Z,41.66
2018-07-23T16:14:05.945Z,42.58
2018-07-23T16:17:37.540Z,43.66
2018-07-23T16:20:08.831Z,43.09
2018-07-23T16:22:36.348Z,43.84
2018-07-23T16:25:06.067Z,43.27
2018-07-23T16:27:37.422Z,43.43
2018-07-23T16:30:13.222Z,43.41
2018-07-23T16:32:41.403Z,44.02
2018-07-23T16:35:12.983Z,43.42
2018-07-23T16:37:42.687Z,44.41
2018-07-23T16:40:19.481Z,44.41
2018-07-23T16:42:51.579Z,44.50
2018-07-23T16:45:20.928Z,43.48
2018-07-23T16:47:50.319Z,44.00
2018-07-23T16:50:18.917Z,44.83
2018-07-23T16:55:22.459Z,44.80
2018-07-23T16:57:49.869Z,43.60
2018-07-23T17:00:17.343Z,44.51
2018-07-23T17:02:44.765Z,44.07
2018-07-23T17:05:12.221Z,43.86
2018-07-23T17:07:39.708Z,44.76
2018-07-23T17:10:07.129Z,44.31
2018-07-23T17:12:34.609Z,44.25
2018-07-23T17:15:02.050Z,43.81
2018-07-23T17:17:29.505Z,44.00
2018-07-23T17:19:56.993Z,44.15
2018-07-23T17:22:24.432Z,45.05
2018-07-23T17:24:51.895Z,44.18
2018-07-23T17:27:19.329Z,44.58
2018-07-23T17:29:46.889Z,44.72
2018-07-23T17:32:14.249Z,45.05
2018-07-23T17:34:41.737Z,44.70
2018-07-23T17:37:09.167Z,44.87
2018-07-23T17:39:36.673Z,43.71
2018-07-23T17:42:04.177Z,44.01
2018-07-23T17:44:31.546Z,43.88
2018-07-23T17:46:59.022Z,44.82
2018-07-23T17:49:26.504Z,44.20
2018-07-23T17:51:53.929Z,44.00
2018-07-23T17:54:21.403Z,44.75
2018-07-23T17:56:48.894Z,44.66
2018-07-23T17:59:16.945Z,44.39
2018-07-23T18:01:44.405Z,43.84
2018-07-23T18:04:11.903Z,44.04
2018-07-23T18:06:39.321Z,43.81
2018-07-23T18:09:07.561Z,43.83
2018-07-23T18:11:35.196Z,44.60
2018-07-23T18:14:02.716Z,44.74
2018-07-23T18:16:30.142Z,45.35
2018-07-23T18:18:57.610Z,44.86
2018-07-23T18:21:25.101Z,44.29
2018-07-23T18:23:52.509Z,44.95
2018-07-23T18:26:19.958Z,44.63
2018-07-23T18:28:47.465Z,44.98
2018-07-23T18:31:15.221Z,44.95
2018-07-23T18:33:43.106Z,45.06
2018-07-23T18:36:10.940Z,44.22
2018-07-23T18:38:38.626Z,43.91
2018-07-23T18:41:06.243Z,44.31
2018-07-23T18:43:33.894Z,44.37
2018-07-23T18:46:01.491Z,44.20
2018-07-23T18:49:37.329Z,43.63
2018-07-23T18:52:05.694Z,44.21
2018-07-23T18:54:33.910Z,44.05
2018-07-23T18:57:01.711Z,44.09
2018-07-23T18:59:29.369Z,44.69
2018-07-23T19:01:57.262Z,43.76
2018-07-23T19:04:25.072Z,44.60
2018-07-23T19:06:52.834Z,44.61
2018-07-23T19:09:20.619Z,44.87
2018-07-23T19:11:48.401Z,43.73
2018-07-23T19:14:16.045Z,44.30
2018-07-23T19:16:43.697Z,43.81
2018-07-23T19:19:11.382Z,44.30
2018-07-23T19:21:39.078Z,43.80
2018-07-23T19:24:06.784Z,45.19
2018-07-23T19:26:34.632Z,45.50
2018-07-23T19:29:02.463Z,44.78
2018-07-23T19:31:30.565Z,44.08
2018-07-23T19:33:58.315Z,44.27
2018-07-23T19:36:26.030Z,44.54
2018-07-23T19:38:53.863Z,43.48
2018-07-23T19:41:21.818Z,44.42
2018-07-23T19:43:49.393Z,44.08
2018-07-23T19:46:17.171Z,44.27
2018-07-23T19:48:45.008Z,44.21
2018-07-23T19:51:12.938Z,43.94
2018-07-23T19:53:41.899Z,44.26
2018-07-23T19:56:09.914Z,44.70
2018-07-23T19:58:37.863Z,43.51
2018-07-23T20:01:05.420Z,43.79
2018-07-23T20:03:33.150Z,44.70
2018-07-23T20:06:00.879Z,44.09
2018-07-23T20:08:28.413Z,43.79
2018-07-23T20:10:56.026Z,44.72
2018-07-23T20:13:23.906Z,44.83
2018-07-23T20:15:51.732Z,43.65
2018-07-23T20:18:19.923Z,43.47
2018-07-23T20:20:47.734Z,44.45
2018-07-23T20:23:15.557Z,44.36
2018-07-23T20:25:43.394Z,43.66
2018-07-23T20:28:11.089Z,44.27
2018-07-23T20:30:38.833Z,44.00
2018-07-23T20:33:06.427Z,43.65
2018-07-23T20:35:34.239Z,44.88
2018-07-23T20:38:01.795Z,44.50
2018-07-23T20:40:29.274Z,43.28
2018-07-23T20:42:57.161Z,44.02
2018-07-23T20:45:24.904Z,44.33
2018-07-23T20:47:52.526Z,43.79
2018-07-23T20:50:20.281Z,44.62
2018-07-23T20:52:48.067Z,44.92
2018-07-23T20:55:15.970Z,45.04
2018-07-23T20:57:44.074Z,45.69
2018-07-23T21:00:11.744Z,45.46
2018-07-23T21:02:39.506Z,45.20
2018-07-23T21:05:07.257Z,44.96
2018-07-23T21:07:34.977Z,45.67
2018-07-23T21:10:02.687Z,45.60
2018-07-23T21:12:30.655Z,45.92
2018-07-23T21:14:58.781Z,46.48
2018-07-23T21:17:26.933Z,45.22
2018-07-23T21:19:54.771Z,45.65
2018-07-23T21:22:23.900Z,45.41
2018-07-23T21:24:52.119Z,45.78
2018-07-23T21:27:20.421Z,45.80
2018-07-23T21:29:48.756Z,45.91
2018-07-23T21:32:17.747Z,45.07
2018-07-23T21:34:46.325Z,46.29
2018-07-23T21:37:14.870Z,45.17
2018-07-23T21:39:42.747Z,45.99
2018-07-23T21:42:10.660Z,45.19
2018-07-23T21:44:38.457Z,45.87
2018-07-23T21:47:06.431Z,45.45
2018-07-23T21:49:34.147Z,44.39
2018-07-23T21:52:01.727Z,44.86
2018-07-23T21:54:29.332Z,44.63
2018-07-23T21:56:57.112Z,44.10
2018-07-23T21:59:24.836Z,44.70
2018-07-23T22:01:52.573Z,44.25
2018-07-23T22:04:20.173Z,44.17
2018-07-23T22:06:47.718Z,44.97
2018-07-23T22:09:15.531Z,44.79
2018-07-23T22:11:43.182Z,45.04
2018-07-23T22:14:10.839Z,45.25
2018-07-23T22:16:38.653Z,44.20
2018-07-23T22:19:06.390Z,45.50
2018-07-23T22:21:33.937Z,44.37
2018-07-23T22:24:01.686Z,44.89
2018-07-23T22:26:29.394Z,45.30
2018-07-23T22:28:57.069Z,45.20
2018-07-23T22:31:24.864Z,45.31
2018-07-23T22:33:52.646Z,45.16
2018-07-23T22:36:20.385Z,44.87
2018-07-23T22:38:48.109Z,44.58
2018-07-23T22:41:15.793Z,45.25
2018-07-23T22:43:43.520Z,44.82
2018-07-23T22:46:11.296Z,44.50
2018-07-23T22:48:39.983Z,44.71
2018-07-23T22:51:07.601Z,45.86
2018-07-23T22:53:35.881Z,45.13
2018-07-23T22:56:03.663Z,46.01
2018-07-23T22:58:31.529Z,45.48
2018-07-23T23:00:59.321Z,45.01
2018-07-23T23:03:27.266Z,45.79
2018-07-23T23:05:55.704Z,44.53
2018-07-23T23:08:23.450Z,44.97
2018-07-23T23:10:51.339Z,45.66
2018-07-23T23:13:19.351Z,45.11
2018-07-23T23:15:46.899Z,45.89
2018-07-23T23:18:14.702Z,45.08
2018-07-23T23:20:42.571Z,44.51
2018-07-23T23:23:10.451Z,45.81
2018-07-23T23:25:38.257Z,45.77
2018-07-23T23:28:05.946Z,44.98
2018-07-23T23:30:33.590Z,45.56
2018-07-23T23:33:01.415Z,45.98
2018-07-23T23:35:29.043Z,45.62
2018-07-23T23:37:56.758Z,45.69
2018-07-23T23:40:24.406Z,45.89
2018-07-23T23:42:52.102Z,44.88
2018-07-23T23:45:19.825Z,46.11
2018-07-23T23:47:47.662Z,46.20
2018-07-23T23:50:15.429Z,46.38
2018-07-23T23:52:43.100Z,46.18
2018-07-23T23:55:10.932Z,46.29
2018-07-23T23:57:38.602Z,46.47
